sensor_id;sensor_type;location;lat;lon;timestamp;P1;durP1;ratioP1;P2;durP2;ratioP2
76953;SDS011;65893;51.698;-0.292;2023-08-24T00:02:06;8.73;;;3.22;;
76953;SDS011;65893;51.698;-0.292;2023-08-24T00:04:32;12.57;;;3.22;;
76953;SDS011;65893;51.698;-0.292;2023-08-24T00:07:02;7.32;;;2.58;;
76953;SDS011;65893;51.698;-0.292;2023-08-24T00:09:28;9.80;;;3.22;;
76953;SDS011;65893;51.698;-0.292;2023-08-24T00:11:54;8.60;;;2.92;;
76953;SDS011;65893;51.698;-0.292;2023-08-24T00:14:20;9.98;;;2.45;;
76953;SDS011;65893;51.698;-0.292;2023-08-24T00:16:46;7.50;;;2.55;;
76953;SDS011;65893;51.698;-0.292;2023-08-24T00:19:12;9.10;;;2.60;;
76953;SDS011;65893;51.698;-0.292;2023-08-24T00:21:38;8.40;;;2.70;;
76953;SDS011;65893;51.698;-0.292;2023-08-24T00:24:05;10.10;;;2.92;;
76953;SDS011;65893;51.698;-0.292;2023-08-24T00:26:31;8.27;;;2.80;;
76953;SDS011;65893;51.698;-0.292;2023-08-24T00:28:57;8.93;;;3.20;;
76953;SDS011;65893;51.698;-0.292;2023-08-24T00:31:23;7.40;;;2.90;;
76953;SDS011;65893;51.698;-0.292;2023-08-24T00:33:49;8.68;;;2.80;;
76953;SDS011;65893;51.698;-0.292;2023-08-24T00:36:17;9.02;;;3.03;;
76953;SDS011;65893;51.698;-0.292;2023-08-24T00:38:44;8.45;;;2.55;;
76953;SDS011;65893;51.698;-0.292;2023-08-24T00:41:10;7.00;;;3.08;;
76953;SDS011;65893;51.698;-0.292;2023-08-24T00:43:36;7.78;;;2.58;;
76953;SDS011;65893;51.698;-0.292;2023-08-24T00:46:03;9.27;;;2.85;;
76953;SDS011;65893;51.698;-0.292;2023-08-24T00:48:29;11.13;;;2.70;;
76953;SDS011;65893;51.698;-0.292;2023-08-24T00:50:57;9.30;;;2.95;;
76953;SDS011;65893;51.698;-0.292;2023-08-24T00:53:25;9.48;;;3.05;;
76953;SDS011;65893;51.698;-0.292;2023-08-24T00:55:51;7.57;;;3.03;;
76953;SDS011;65893;51.698;-0.292;2023-08-24T00:58:17;10.65;;;3.40;;
76953;SDS011;65893;51.698;-0.292;2023-08-24T01:00:44;7.20;;;3.05;;
76953;SDS011;65893;51.698;-0.292;2023-08-24T01:03:10;8.10;;;2.78;;
76953;SDS011;65893;51.698;-0.292;2023-08-24T01:05:36;7.20;;;2.67;;
76953;SDS011;65893;51.698;-0.292;2023-08-24T01:08:03;8.27;;;2.72;;
76953;SDS011;65893;51.698;-0.292;2023-08-24T01:10:32;9.85;;;3.03;;
76953;SDS011;65893;51.698;-0.292;2023-08-24T01:13:07;6.65;;;3.03;;
76953;SDS011;65893;51.698;-0.292;2023-08-24T01:15:48;6.38;;;2.88;;
76953;SDS011;65893;51.698;-0.292;2023-08-24T01:18:16;8.13;;;2.95;;
76953;SDS011;65893;51.698;-0.292;2023-08-24T01:20:45;6.47;;;2.95;;
76953;SDS011;65893;51.698;-0.292;2023-08-24T01:28:12;6.05;;;2.20;;
76953;SDS011;65893;51.698;-0.292;2023-08-24T01:30:39;6.97;;;2.72;;
76953;SDS011;65893;51.698;-0.292;2023-08-24T01:33:05;7.32;;;2.35;;
76953;SDS011;65893;51.698;-0.292;2023-08-24T01:38:02;7.13;;;2.60;;
76953;SDS011;65893;51.698;-0.292;2023-08-24T01:43:14;8.77;;;3.78;;
76953;SDS011;65893;51.698;-0.292;2023-08-24T01:45:41;7.97;;;2.60;;
76953;SDS011;65893;51.698;-0.292;2023-08-24T01:48:07;5.78;;;2.35;;
76953;SDS011;65893;51.698;-0.292;2023-08-24T01:50:35;5.40;;;2.75;;
76953;SDS011;65893;51.698;-0.292;2023-08-24T01:53:02;10.88;;;3.20;;
76953;SDS011;65893;51.698;-0.292;2023-08-24T01:55:28;9.60;;;3.40;;
76953;SDS011;65893;51.698;-0.292;2023-08-24T01:57:55;9.30;;;3.00;;
76953;SDS011;65893;51.698;-0.292;2023-08-24T02:00:21;14.20;;;3.08;;
76953;SDS011;65893;51.698;-0.292;2023-08-24T02:02:47;10.27;;;2.63;;
76953;SDS011;65893;51.698;-0.292;2023-08-24T02:05:13;9.80;;;3.25;;
76953;SDS011;65893;51.698;-0.292;2023-08-24T02:07:39;9.23;;;3.50;;
76953;SDS011;65893;51.698;-0.292;2023-08-24T02:10:06;11.27;;;3.75;;
76953;SDS011;65893;51.698;-0.292;2023-08-24T02:12:32;9.98;;;3.28;;
76953;SDS011;65893;51.698;-0.292;2023-08-24T02:14:58;9.35;;;3.75;;
76953;SDS011;65893;51.698;-0.292;2023-08-24T02:17:25;9.52;;;4.18;;
76953;SDS011;65893;51.698;-0.292;2023-08-24T02:19:51;11.20;;;4.00;;
76953;SDS011;65893;51.698;-0.292;2023-08-24T02:22:17;11.43;;;4.65;;
76953;SDS011;65893;51.698;-0.292;2023-08-24T02:24:43;12.07;;;4.47;;
76953;SDS011;65893;51.698;-0.292;2023-08-24T02:27:09;10.95;;;4.25;;
76953;SDS011;65893;51.698;-0.292;2023-08-24T02:29:35;13.30;;;4.50;;
76953;SDS011;65893;51.698;-0.292;2023-08-24T02:32:03;13.95;;;4.70;;
76953;SDS011;65893;51.698;-0.292;2023-08-24T02:34:29;11.48;;;4.78;;
76953;SDS011;65893;51.698;-0.292;2023-08-24T02:36:56;15.25;;;4.45;;
76953;SDS011;65893;51.698;-0.292;2023-08-24T02:39:22;12.30;;;4.40;;
76953;SDS011;65893;51.698;-0.292;2023-08-24T02:41:48;14.15;;;4.63;;
76953;SDS011;65893;51.698;-0.292;2023-08-24T02:44:14;13.15;;;4.43;;
76953;SDS011;65893;51.698;-0.292;2023-08-24T02:46:40;11.82;;;4.30;;
76953;SDS011;65893;51.698;-0.292;2023-08-24T02:49:07;10.23;;;4.15;;
76953;SDS011;65893;51.698;-0.292;2023-08-24T02:51:33;11.35;;;4.07;;
76953;SDS011;65893;51.698;-0.292;2023-08-24T02:53:59;9.40;;;4.13;;
76953;SDS011;65893;51.698;-0.292;2023-08-24T02:56:25;10.80;;;4.38;;
76953;SDS011;65893;51.698;-0.292;2023-08-24T02:58:51;10.70;;;3.97;;
76953;SDS011;65893;51.698;-0.292;2023-08-24T03:01:17;9.23;;;3.83;;
76953;SDS011;65893;51.698;-0.292;2023-08-24T03:03:43;8.20;;;3.22;;
76953;SDS011;65893;51.698;-0.292;2023-08-24T03:06:09;9.82;;;3.80;;
76953;SDS011;65893;51.698;-0.292;2023-08-24T03:08:36;10.48;;;4.07;;
76953;SDS011;65893;51.698;-0.292;2023-08-24T03:11:02;14.20;;;4.78;;
76953;SDS011;65893;51.698;-0.292;2023-08-24T03:13:28;10.43;;;3.22;;
76953;SDS011;65893;51.698;-0.292;2023-08-24T03:15:55;12.70;;;3.85;;
76953;SDS011;65893;51.698;-0.292;2023-08-24T03:18:21;9.35;;;3.67;;
76953;SDS011;65893;51.698;-0.292;2023-08-24T03:20:48;8.82;;;3.17;;
76953;SDS011;65893;51.698;-0.292;2023-08-24T03:23:17;12.82;;;4.30;;
76953;SDS011;65893;51.698;-0.292;2023-08-24T03:25:43;14.00;;;4.35;;
76953;SDS011;65893;51.698;-0.292;2023-08-24T03:28:09;16.02;;;3.90;;
76953;SDS011;65893;51.698;-0.292;2023-08-24T03:30:36;11.65;;;3.80;;
76953;SDS011;65893;51.698;-0.292;2023-08-24T03:33:02;8.50;;;4.13;;
76953;SDS011;65893;51.698;-0.292;2023-08-24T03:35:30;10.10;;;3.72;;
76953;SDS011;65893;51.698;-0.292;2023-08-24T03:37:56;11.02;;;4.35;;
76953;SDS011;65893;51.698;-0.292;2023-08-24T03:40:22;9.48;;;4.13;;
76953;SDS011;65893;51.698;-0.292;2023-08-24T03:42:48;8.50;;;3.30;;
76953;SDS011;65893;51.698;-0.292;2023-08-24T03:45:14;10.90;;;4.45;;
76953;SDS011;65893;51.698;-0.292;2023-08-24T03:47:40;11.98;;;4.68;;
76953;SDS011;65893;51.698;-0.292;2023-08-24T03:50:06;10.82;;;4.03;;
76953;SDS011;65893;51.698;-0.292;2023-08-24T03:52:32;11.93;;;3.58;;
76953;SDS011;65893;51.698;-0.292;2023-08-24T03:54:58;10.57;;;4.22;;
76953;SDS011;65893;51.698;-0.292;2023-08-24T03:57:24;13.82;;;4.30;;
76953;SDS011;65893;51.698;-0.292;2023-08-24T03:59:51;11.38;;;4.18;;
76953;SDS011;65893;51.698;-0.292;2023-08-24T04:02:17;11.68;;;4.32;;
76953;SDS011;65893;51.698;-0.292;2023-08-24T04:04:43;11.98;;;3.80;;
76953;SDS011;65893;51.698;-0.292;2023-08-24T04:07:09;9.85;;;3.67;;
76953;SDS011;65893;51.698;-0.292;2023-08-24T04:09:35;12.75;;;4.68;;
76953;SDS011;65893;51.698;-0.292;2023-08-24T04:12:01;14.25;;;4.00;;
76953;SDS011;65893;51.698;-0.292;2023-08-24T04:14:27;11.30;;;4.55;;
76953;SDS011;65893;51.698;-0.292;2023-08-24T04:16:53;9.95;;;4.20;;
76953;SDS011;65893;51.698;-0.292;2023-08-24T04:19:19;12.48;;;4.78;;
76953;SDS011;65893;51.698;-0.292;2023-08-24T04:21:45;10.57;;;5.00;;
76953;SDS011;65893;51.698;-0.292;2023-08-24T04:24:11;12.73;;;4.07;;
76953;SDS011;65893;51.698;-0.292;2023-08-24T04:26:37;12.70;;;5.05;;
76953;SDS011;65893;51.698;-0.292;2023-08-24T04:29:03;9.20;;;3.63;;
76953;SDS011;65893;51.698;-0.292;2023-08-24T04:31:30;10.93;;;4.55;;
76953;SDS011;65893;51.698;-0.292;2023-08-24T04:33:56;12.23;;;3.88;;
76953;SDS011;65893;51.698;-0.292;2023-08-24T04:36:22;10.52;;;3.97;;
76953;SDS011;65893;51.698;-0.292;2023-08-24T04:38:48;8.65;;;3.42;;
76953;SDS011;65893;51.698;-0.292;2023-08-24T04:41:14;9.73;;;3.88;;
76953;SDS011;65893;51.698;-0.292;2023-08-24T04:43:41;9.40;;;3.40;;
76953;SDS011;65893;51.698;-0.292;2023-08-24T04:46:07;15.45;;;3.72;;
76953;SDS011;65893;51.698;-0.292;2023-08-24T04:48:33;8.70;;;4.03;;
76953;SDS011;65893;51.698;-0.292;2023-08-24T04:51:00;16.38;;;4.50;;
76953;SDS011;65893;51.698;-0.292;2023-08-24T04:53:27;11.90;;;3.97;;
76953;SDS011;65893;51.698;-0.292;2023-08-24T04:55:53;9.07;;;3.92;;
76953;SDS011;65893;51.698;-0.292;2023-08-24T04:58:19;9.48;;;4.50;;
76953;SDS011;65893;51.698;-0.292;2023-08-24T05:00:45;10.18;;;4.32;;
76953;SDS011;65893;51.698;-0.292;2023-08-24T05:03:11;9.32;;;3.53;;
76953;SDS011;65893;51.698;-0.292;2023-08-24T05:05:38;14.98;;;3.88;;
76953;SDS011;65893;51.698;-0.292;2023-08-24T05:08:04;12.10;;;3.75;;
76953;SDS011;65893;51.698;-0.292;2023-08-24T05:10:31;9.20;;;3.92;;
76953;SDS011;65893;51.698;-0.292;2023-08-24T05:12:58;12.18;;;4.03;;
76953;SDS011;65893;51.698;-0.292;2023-08-24T05:15:24;11.23;;;4.55;;
76953;SDS011;65893;51.698;-0.292;2023-08-24T05:17:50;13.07;;;4.00;;
76953;SDS011;65893;51.698;-0.292;2023-08-24T05:20:19;9.85;;;4.40;;
76953;SDS011;65893;51.698;-0.292;2023-08-24T05:22:45;14.43;;;3.97;;
76953;SDS011;65893;51.698;-0.292;2023-08-24T05:25:13;11.73;;;3.95;;
76953;SDS011;65893;51.698;-0.292;2023-08-24T05:27:41;7.43;;;3.13;;
76953;SDS011;65893;51.698;-0.292;2023-08-24T05:30:07;17.85;;;4.07;;
76953;SDS011;65893;51.698;-0.292;2023-08-24T05:32:34;10.57;;;3.97;;
76953;SDS011;65893;51.698;-0.292;2023-08-24T05:35:03;8.95;;;4.00;;
76953;SDS011;65893;51.698;-0.292;2023-08-24T05:37:31;11.15;;;3.85;;
76953;SDS011;65893;51.698;-0.292;2023-08-24T05:39:57;13.98;;;5.18;;
76953;SDS011;65893;51.698;-0.292;2023-08-24T05:42:23;8.20;;;3.72;;
76953;SDS011;65893;51.698;-0.292;2023-08-24T05:44:49;9.40;;;3.55;;
76953;SDS011;65893;51.698;-0.292;2023-08-24T05:47:15;12.43;;;4.82;;
76953;SDS011;65893;51.698;-0.292;2023-08-24T05:49:41;12.77;;;4.43;;
76953;SDS011;65893;51.698;-0.292;2023-08-24T05:52:07;7.93;;;3.80;;
76953;SDS011;65893;51.698;-0.292;2023-08-24T05:54:35;10.05;;;3.90;;
76953;SDS011;65893;51.698;-0.292;2023-08-24T05:57:01;14.95;;;3.95;;
76953;SDS011;65893;51.698;-0.292;2023-08-24T05:59:29;10.25;;;3.92;;
76953;SDS011;65893;51.698;-0.292;2023-08-24T06:01:55;9.95;;;4.18;;
76953;SDS011;65893;51.698;-0.292;2023-08-24T06:04:21;22.33;;;4.63;;
76953;SDS011;65893;51.698;-0.292;2023-08-24T06:06:47;9.65;;;3.63;;
76953;SDS011;65893;51.698;-0.292;2023-08-24T06:09:13;11.50;;;4.00;;
76953;SDS011;65893;51.698;-0.292;2023-08-24T06:11:40;12.85;;;4.10;;
76953;SDS011;65893;51.698;-0.292;2023-08-24T06:14:06;11.98;;;3.88;;
76953;SDS011;65893;51.698;-0.292;2023-08-24T06:16:32;9.88;;;4.20;;
76953;SDS011;65893;51.698;-0.292;2023-08-24T06:18:58;9.07;;;3.78;;
76953;SDS011;65893;51.698;-0.292;2023-08-24T06:21:24;9.48;;;4.43;;
76953;SDS011;65893;51.698;-0.292;2023-08-24T06:23:50;9.50;;;3.75;;
76953;SDS011;65893;51.698;-0.292;2023-08-24T06:26:17;11.23;;;4.35;;
76953;SDS011;65893;51.698;-0.292;2023-08-24T06:28:43;13.77;;;4.00;;
76953;SDS011;65893;51.698;-0.292;2023-08-24T06:31:09;8.07;;;3.95;;
76953;SDS011;65893;51.698;-0.292;2023-08-24T06:33:35;9.05;;;3.85;;
76953;SDS011;65893;51.698;-0.292;2023-08-24T06:36:02;10.90;;;4.07;;
76953;SDS011;65893;51.698;-0.292;2023-08-24T06:38:30;13.20;;;5.60;;
76953;SDS011;65893;51.698;-0.292;2023-08-24T06:40:57;8.52;;;3.72;;
76953;SDS011;65893;51.698;-0.292;2023-08-24T06:43:23;14.10;;;3.75;;
76953;SDS011;65893;51.698;-0.292;2023-08-24T06:45:49;11.27;;;4.13;;
76953;SDS011;65893;51.698;-0.292;2023-08-24T06:48:15;10.35;;;4.28;;
76953;SDS011;65893;51.698;-0.292;2023-08-24T06:50:42;12.48;;;4.53;;
76953;SDS011;65893;51.698;-0.292;2023-08-24T06:53:08;13.50;;;5.25;;
76953;SDS011;65893;51.698;-0.292;2023-08-24T06:55:35;10.07;;;4.50;;
76953;SDS011;65893;51.698;-0.292;2023-08-24T06:58:02;15.63;;;5.10;;
76953;SDS011;65893;51.698;-0.292;2023-08-24T07:00:31;14.55;;;4.65;;
76953;SDS011;65893;51.698;-0.292;2023-08-24T07:02:58;12.30;;;4.50;;
76953;SDS011;65893;51.698;-0.292;2023-08-24T07:05:24;10.63;;;5.07;;
76953;SDS011;65893;51.698;-0.292;2023-08-24T07:07:51;13.68;;;5.53;;
76953;SDS011;65893;51.698;-0.292;2023-08-24T07:10:17;13.27;;;4.68;;
76953;SDS011;65893;51.698;-0.292;2023-08-24T07:12:43;9.77;;;4.30;;
76953;SDS011;65893;51.698;-0.292;2023-08-24T07:15:13;8.63;;;4.00;;
76953;SDS011;65893;51.698;-0.292;2023-08-24T07:17:39;9.07;;;3.70;;
76953;SDS011;65893;51.698;-0.292;2023-08-24T07:20:05;12.57;;;4.35;;
76953;SDS011;65893;51.698;-0.292;2023-08-24T07:22:33;9.75;;;3.72;;
76953;SDS011;65893;51.698;-0.292;2023-08-24T07:25:00;10.48;;;3.60;;
76953;SDS011;65893;51.698;-0.292;2023-08-24T07:27:29;9.27;;;4.40;;
76953;SDS011;65893;51.698;-0.292;2023-08-24T07:29:55;12.20;;;4.90;;
76953;SDS011;65893;51.698;-0.292;2023-08-24T07:32:21;11.93;;;4.72;;
76953;SDS011;65893;51.698;-0.292;2023-08-24T07:34:48;11.00;;;4.63;;
76953;SDS011;65893;51.698;-0.292;2023-08-24T07:37:14;12.50;;;5.00;;
76953;SDS011;65893;51.698;-0.292;2023-08-24T07:39:40;15.57;;;4.65;;
76953;SDS011;65893;51.698;-0.292;2023-08-24T07:42:06;11.63;;;4.53;;
76953;SDS011;65893;51.698;-0.292;2023-08-24T07:44:33;12.02;;;4.25;;
76953;SDS011;65893;51.698;-0.292;2023-08-24T07:46:59;8.90;;;4.30;;
76953;SDS011;65893;51.698;-0.292;2023-08-24T07:49:25;10.88;;;4.13;;
76953;SDS011;65893;51.698;-0.292;2023-08-24T07:51:51;8.10;;;3.83;;
76953;SDS011;65893;51.698;-0.292;2023-08-24T07:54:17;11.07;;;4.35;;
76953;SDS011;65893;51.698;-0.292;2023-08-24T07:56:43;7.13;;;3.42;;
76953;SDS011;65893;51.698;-0.292;2023-08-24T07:59:09;8.98;;;3.67;;
76953;SDS011;65893;51.698;-0.292;2023-08-24T08:01:35;8.57;;;3.53;;
76953;SDS011;65893;51.698;-0.292;2023-08-24T08:04:01;11.10;;;4.15;;
76953;SDS011;65893;51.698;-0.292;2023-08-24T08:06:27;8.68;;;3.78;;
76953;SDS011;65893;51.698;-0.292;2023-08-24T08:08:53;7.85;;;3.40;;
76953;SDS011;65893;51.698;-0.292;2023-08-24T08:11:19;9.25;;;4.25;;
76953;SDS011;65893;51.698;-0.292;2023-08-24T08:13:46;11.18;;;4.55;;
76953;SDS011;65893;51.698;-0.292;2023-08-24T08:16:13;14.05;;;5.22;;
76953;SDS011;65893;51.698;-0.292;2023-08-24T08:18:39;10.00;;;4.00;;
76953;SDS011;65893;51.698;-0.292;2023-08-24T08:21:15;11.15;;;4.72;;
76953;SDS011;65893;51.698;-0.292;2023-08-24T08:23:44;8.82;;;4.05;;
76953;SDS011;65893;51.698;-0.292;2023-08-24T08:26:10;7.90;;;3.80;;
76953;SDS011;65893;51.698;-0.292;2023-08-24T08:28:37;9.82;;;4.60;;
76953;SDS011;65893;51.698;-0.292;2023-08-24T08:31:03;10.43;;;4.22;;
76953;SDS011;65893;51.698;-0.292;2023-08-24T08:33:29;16.42;;;4.97;;
76953;SDS011;65893;51.698;-0.292;2023-08-24T08:36:01;10.65;;;4.32;;
76953;SDS011;65893;51.698;-0.292;2023-08-24T08:38:28;12.77;;;5.63;;
76953;SDS011;65893;51.698;-0.292;2023-08-24T08:41:00;13.85;;;5.20;;
76953;SDS011;65893;51.698;-0.292;2023-08-24T08:43:28;12.75;;;5.38;;
76953;SDS011;65893;51.698;-0.292;2023-08-24T08:46:00;11.52;;;5.88;;
76953;SDS011;65893;51.698;-0.292;2023-08-24T08:48:26;12.73;;;4.65;;
76953;SDS011;65893;51.698;-0.292;2023-08-24T08:50:54;11.40;;;5.47;;
76953;SDS011;65893;51.698;-0.292;2023-08-24T08:53:23;11.93;;;5.72;;
76953;SDS011;65893;51.698;-0.292;2023-08-24T08:55:51;12.07;;;6.15;;
76953;SDS011;65893;51.698;-0.292;2023-08-24T08:58:18;15.82;;;5.60;;
76953;SDS011;65893;51.698;-0.292;2023-08-24T09:00:44;11.32;;;4.72;;
76953;SDS011;65893;51.698;-0.292;2023-08-24T09:03:11;11.98;;;4.40;;
76953;SDS011;65893;51.698;-0.292;2023-08-24T09:05:38;14.73;;;4.80;;
76953;SDS011;65893;51.698;-0.292;2023-08-24T09:08:05;10.95;;;4.50;;
76953;SDS011;65893;51.698;-0.292;2023-08-24T09:10:31;11.15;;;4.65;;
76953;SDS011;65893;51.698;-0.292;2023-08-24T09:12:57;15.30;;;5.78;;
76953;SDS011;65893;51.698;-0.292;2023-08-24T09:15:24;11.23;;;5.18;;
76953;SDS011;65893;51.698;-0.292;2023-08-24T09:17:54;13.13;;;5.00;;
76953;SDS011;65893;51.698;-0.292;2023-08-24T09:20:27;16.33;;;5.68;;
76953;SDS011;65893;51.698;-0.292;2023-08-24T09:22:54;14.57;;;5.13;;
76953;SDS011;65893;51.698;-0.292;2023-08-24T09:25:23;11.07;;;5.15;;
76953;SDS011;65893;51.698;-0.292;2023-08-24T09:28:02;9.68;;;4.88;;
76953;SDS011;65893;51.698;-0.292;2023-08-24T09:30:37;11.27;;;4.72;;
76953;SDS011;65893;51.698;-0.292;2023-08-24T09:33:14;10.50;;;5.93;;
76953;SDS011;65893;51.698;-0.292;2023-08-24T09:35:40;13.70;;;4.90;;
76953;SDS011;65893;51.698;-0.292;2023-08-24T09:38:20;11.15;;;6.20;;
76953;SDS011;65893;51.698;-0.292;2023-08-24T09:40:52;16.70;;;5.95;;
76953;SDS011;65893;51.698;-0.292;2023-08-24T09:43:18;13.07;;;5.15;;
76953;SDS011;65893;51.698;-0.292;2023-08-24T09:48:15;11.20;;;5.35;;
76953;SDS011;65893;51.698;-0.292;2023-08-24T09:50:44;11.05;;;5.05;;
76953;SDS011;65893;51.698;-0.292;2023-08-24T09:53:18;9.57;;;4.82;;
76953;SDS011;65893;51.698;-0.292;2023-08-24T09:55:49;10.90;;;4.75;;
76953;SDS011;65893;51.698;-0.292;2023-08-24T09:58:18;11.10;;;4.38;;
76953;SDS011;65893;51.698;-0.292;2023-08-24T10:00:45;9.45;;;4.75;;
76953;SDS011;65893;51.698;-0.292;2023-08-24T10:03:20;11.45;;;5.18;;
76953;SDS011;65893;51.698;-0.292;2023-08-24T10:05:47;10.55;;;4.90;;
76953;SDS011;65893;51.698;-0.292;2023-08-24T10:08:16;14.38;;;4.97;;
76953;SDS011;65893;51.698;-0.292;2023-08-24T10:10:43;7.45;;;3.67;;
76953;SDS011;65893;51.698;-0.292;2023-08-24T10:13:53;13.07;;;4.28;;
76953;SDS011;65893;51.698;-0.292;2023-08-24T10:15:59;12.85;;;4.68;;
76953;SDS011;65893;51.698;-0.292;2023-08-24T10:18:25;11.60;;;4.10;;
76953;SDS011;65893;51.698;-0.292;2023-08-24T10:20:57;9.73;;;3.90;;
76953;SDS011;65893;51.698;-0.292;2023-08-24T10:23:23;10.43;;;5.00;;
76953;SDS011;65893;51.698;-0.292;2023-08-24T10:25:50;7.65;;;3.75;;
76953;SDS011;65893;51.698;-0.292;2023-08-24T10:28:18;12.20;;;4.32;;
76953;SDS011;65893;51.698;-0.292;2023-08-24T10:30:44;7.68;;;3.60;;
76953;SDS011;65893;51.698;-0.292;2023-08-24T10:33:11;8.65;;;4.07;;
76953;SDS011;65893;51.698;-0.292;2023-08-24T10:35:38;8.75;;;2.67;;
76953;SDS011;65893;51.698;-0.292;2023-08-24T10:38:05;7.35;;;3.17;;
76953;SDS011;65893;51.698;-0.292;2023-08-24T10:40:38;8.05;;;3.22;;
76953;SDS011;65893;51.698;-0.292;2023-08-24T10:43:10;11.57;;;3.33;;
76953;SDS011;65893;51.698;-0.292;2023-08-24T10:46:02;8.75;;;2.50;;
76953;SDS011;65893;51.698;-0.292;2023-08-24T10:48:31;7.60;;;2.92;;
76953;SDS011;65893;51.698;-0.292;2023-08-24T10:51:18;11.68;;;4.13;;
76953;SDS011;65893;51.698;-0.292;2023-08-24T10:56:24;6.45;;;2.45;;
76953;SDS011;65893;51.698;-0.292;2023-08-24T10:59:30;11.40;;;3.13;;
76953;SDS011;65893;51.698;-0.292;2023-08-24T11:07:49;8.13;;;3.00;;
76953;SDS011;65893;51.698;-0.292;2023-08-24T11:10:17;7.15;;;2.97;;
76953;SDS011;65893;51.698;-0.292;2023-08-24T11:15:33;7.65;;;2.58;;
76953;SDS011;65893;51.698;-0.292;2023-08-24T11:23:22;8.93;;;3.80;;
76953;SDS011;65893;51.698;-0.292;2023-08-24T11:25:51;9.43;;;3.08;;
76953;SDS011;65893;51.698;-0.292;2023-08-24T11:28:22;9.02;;;3.08;;
76953;SDS011;65893;51.698;-0.292;2023-08-24T11:30:49;7.95;;;2.67;;
76953;SDS011;65893;51.698;-0.292;2023-08-24T11:33:31;6.70;;;2.55;;
76953;SDS011;65893;51.698;-0.292;2023-08-24T11:35:58;12.35;;;3.00;;
76953;SDS011;65893;51.698;-0.292;2023-08-24T11:38:42;6.57;;;2.80;;
76953;SDS011;65893;51.698;-0.292;2023-08-24T11:41:13;11.45;;;2.97;;
76953;SDS011;65893;51.698;-0.292;2023-08-24T11:43:42;7.53;;;2.40;;
76953;SDS011;65893;51.698;-0.292;2023-08-24T11:46:08;7.60;;;2.38;;
76953;SDS011;65893;51.698;-0.292;2023-08-24T11:48:37;8.15;;;2.97;;
76953;SDS011;65893;51.698;-0.292;2023-08-24T11:51:09;9.25;;;2.10;;
76953;SDS011;65893;51.698;-0.292;2023-08-24T11:53:44;7.15;;;2.63;;
76953;SDS011;65893;51.698;-0.292;2023-08-24T11:56:15;10.23;;;2.60;;
76953;SDS011;65893;51.698;-0.292;2023-08-24T11:58:47;5.43;;;2.00;;
76953;SDS011;65893;51.698;-0.292;2023-08-24T12:01:16;7.20;;;3.17;;
76953;SDS011;65893;51.698;-0.292;2023-08-24T12:03:43;5.97;;;2.40;;
76953;SDS011;65893;51.698;-0.292;2023-08-24T12:06:11;6.82;;;3.10;;
76953;SDS011;65893;51.698;-0.292;2023-08-24T12:08:40;5.35;;;2.35;;
76953;SDS011;65893;51.698;-0.292;2023-08-24T12:11:20;10.65;;;2.38;;
76953;SDS011;65893;51.698;-0.292;2023-08-24T12:13:51;9.95;;;2.22;;
76953;SDS011;65893;51.698;-0.292;2023-08-24T12:16:21;8.07;;;2.53;;
76953;SDS011;65893;51.698;-0.292;2023-08-24T12:21:22;6.43;;;2.40;;
76953;SDS011;65893;51.698;-0.292;2023-08-24T12:24:03;10.07;;;2.05;;
76953;SDS011;65893;51.698;-0.292;2023-08-24T12:26:30;5.78;;;2.55;;
76953;SDS011;65893;51.698;-0.292;2023-08-24T12:29:06;6.53;;;2.40;;
76953;SDS011;65893;51.698;-0.292;2023-08-24T12:31:32;7.53;;;1.98;;
76953;SDS011;65893;51.698;-0.292;2023-08-24T12:33:59;7.82;;;2.20;;
76953;SDS011;65893;51.698;-0.292;2023-08-24T12:36:25;8.63;;;2.50;;
76953;SDS011;65893;51.698;-0.292;2023-08-24T12:38:51;9.77;;;2.35;;
76953;SDS011;65893;51.698;-0.292;2023-08-24T12:41:17;9.63;;;2.00;;
76953;SDS011;65893;51.698;-0.292;2023-08-24T12:43:43;10.52;;;2.20;;
76953;SDS011;65893;51.698;-0.292;2023-08-24T12:46:09;6.40;;;2.05;;
76953;SDS011;65893;51.698;-0.292;2023-08-24T12:48:35;4.57;;;1.95;;
76953;SDS011;65893;51.698;-0.292;2023-08-24T12:51:01;5.30;;;2.38;;
76953;SDS011;65893;51.698;-0.292;2023-08-24T12:53:27;5.68;;;1.98;;
76953;SDS011;65893;51.698;-0.292;2023-08-24T12:55:53;7.38;;;2.30;;
76953;SDS011;65893;51.698;-0.292;2023-08-24T12:58:19;5.05;;;1.80;;
76953;SDS011;65893;51.698;-0.292;2023-08-24T13:00:45;10.55;;;2.20;;
76953;SDS011;65893;51.698;-0.292;2023-08-24T13:03:12;7.45;;;2.50;;
76953;SDS011;65893;51.698;-0.292;2023-08-24T13:05:38;5.15;;;2.08;;
76953;SDS011;65893;51.698;-0.292;2023-08-24T13:08:04;4.40;;;1.70;;
76953;SDS011;65893;51.698;-0.292;2023-08-24T13:10:30;6.03;;;2.00;;
76953;SDS011;65893;51.698;-0.292;2023-08-24T13:12:56;6.28;;;2.17;;
76953;SDS011;65893;51.698;-0.292;2023-08-24T13:15:22;7.13;;;2.25;;
76953;SDS011;65893;51.698;-0.292;2023-08-24T13:17:48;9.50;;;2.00;;
76953;SDS011;65893;51.698;-0.292;2023-08-24T13:20:15;5.90;;;2.03;;
76953;SDS011;65893;51.698;-0.292;2023-08-24T13:22:41;8.48;;;2.22;;
76953;SDS011;65893;51.698;-0.292;2023-08-24T13:25:07;6.60;;;2.25;;
76953;SDS011;65893;51.698;-0.292;2023-08-24T13:27:33;5.10;;;1.88;;
76953;SDS011;65893;51.698;-0.292;2023-08-24T13:30:00;7.03;;;2.22;;
76953;SDS011;65893;51.698;-0.292;2023-08-24T13:32:26;5.55;;;2.30;;
76953;SDS011;65893;51.698;-0.292;2023-08-24T13:34:52;6.88;;;2.00;;
76953;SDS011;65893;51.698;-0.292;2023-08-24T13:37:18;5.78;;;2.17;;
76953;SDS011;65893;51.698;-0.292;2023-08-24T13:39:44;6.30;;;2.13;;
76953;SDS011;65893;51.698;-0.292;2023-08-24T13:42:10;7.38;;;2.00;;
76953;SDS011;65893;51.698;-0.292;2023-08-24T13:44:37;5.32;;;2.25;;
76953;SDS011;65893;51.698;-0.292;2023-08-24T13:47:04;5.10;;;2.13;;
76953;SDS011;65893;51.698;-0.292;2023-08-24T13:49:30;5.63;;;2.50;;
76953;SDS011;65893;51.698;-0.292;2023-08-24T13:51:56;6.47;;;1.73;;
76953;SDS011;65893;51.698;-0.292;2023-08-24T13:54:22;7.40;;;2.00;;
76953;SDS011;65893;51.698;-0.292;2023-08-24T13:56:49;6.78;;;2.33;;
76953;SDS011;65893;51.698;-0.292;2023-08-24T13:59:16;5.78;;;2.15;;
76953;SDS011;65893;51.698;-0.292;2023-08-24T14:01:42;5.35;;;2.22;;
76953;SDS011;65893;51.698;-0.292;2023-08-24T14:04:08;6.88;;;2.10;;
76953;SDS011;65893;51.698;-0.292;2023-08-24T14:06:34;7.60;;;2.85;;
76953;SDS011;65893;51.698;-0.292;2023-08-24T14:09:01;6.65;;;2.60;;
76953;SDS011;65893;51.698;-0.292;2023-08-24T14:11:28;6.30;;;2.28;;
76953;SDS011;65893;51.698;-0.292;2023-08-24T14:13:56;8.30;;;2.03;;
76953;SDS011;65893;51.698;-0.292;2023-08-24T14:16:22;7.65;;;2.45;;
76953;SDS011;65893;51.698;-0.292;2023-08-24T14:18:48;5.65;;;2.13;;
76953;SDS011;65893;51.698;-0.292;2023-08-24T14:21:15;7.55;;;3.28;;
76953;SDS011;65893;51.698;-0.292;2023-08-24T14:23:41;4.90;;;1.77;;
76953;SDS011;65893;51.698;-0.292;2023-08-24T14:26:09;6.85;;;2.10;;
76953;SDS011;65893;51.698;-0.292;2023-08-24T14:28:49;7.28;;;2.05;;
76953;SDS011;65893;51.698;-0.292;2023-08-24T14:31:16;7.63;;;2.03;;
76953;SDS011;65893;51.698;-0.292;2023-08-24T14:33:42;5.88;;;2.15;;
76953;SDS011;65893;51.698;-0.292;2023-08-24T14:36:09;6.50;;;1.90;;
76953;SDS011;65893;51.698;-0.292;2023-08-24T14:38:37;5.82;;;1.83;;
76953;SDS011;65893;51.698;-0.292;2023-08-24T14:41:04;6.18;;;2.38;;
76953;SDS011;65893;51.698;-0.292;2023-08-24T14:43:30;8.65;;;2.42;;
76953;SDS011;65893;51.698;-0.292;2023-08-24T14:45:56;6.35;;;2.00;;
76953;SDS011;65893;51.698;-0.292;2023-08-24T14:48:22;6.25;;;2.10;;
76953;SDS011;65893;51.698;-0.292;2023-08-24T14:50:48;4.65;;;1.98;;
76953;SDS011;65893;51.698;-0.292;2023-08-24T14:53:14;7.68;;;2.35;;
76953;SDS011;65893;51.698;-0.292;2023-08-24T14:55:41;5.25;;;1.95;;
76953;SDS011;65893;51.698;-0.292;2023-08-24T14:58:07;7.53;;;1.52;;
76953;SDS011;65893;51.698;-0.292;2023-08-24T15:00:33;6.40;;;2.10;;
76953;SDS011;65893;51.698;-0.292;2023-08-24T15:03:00;5.47;;;1.83;;